Time;durP1;ratioP1;P1;durP2;ratioP2;P2;SDS_P1;SDS_P2;PMS_P1;PMS_P2;Temp;Humidity;BMP_temperature;BMP_pressure;BME280_temperature;BME280_humidity;BME280_pressure;Samples;Min_cycle;Max_cycle;Signal;HPM_P1;HPM_P2
2023/05/13 00:00:16;;;;;;;0.00;0.00;;;;;;;;;;1741184;28;20214;-78
2023/05/13 00:01:07;;;;;;;0.00;0.00;;;;;;;;;;1738681;28;20209;-78
2023/05/13 00:01:59;;;;;;;0.00;0.00;;;;;;;;;;1736168;28;20697;-79
2023/05/13 00:02:51;;;;;;;0.00;0.00;;;;;;;;;;1740600;28;20550;-79
2023/05/13 00:03:43;;;;;;;0.00;0.00;;;;;;;;;;1742309;28;20553;-79
2023/05/13 00:04:34;;;;;;;0.00;0.00;;;;;;;;;;1742410;28;20209;-79
2023/05/13 00:05:26;;;;;;;0.00;0.00;;;;;;;;;;1741141;28;20637;-79
2023/05/13 00:06:17;;;;;;;0.00;0.00;;;;;;;;;;1741420;28;20290;-77
2023/05/13 00:07:09;;;;;;;0.00;0.00;;;;;;;;;;1739082;28;20663;-77
2023/05/13 00:08:01;;;;;;;0.00;0.00;;;;;;;;;;1743041;28;20302;-77
2023/05/13 00:08:52;;;;;;;0.00;0.00;;;;;;;;;;1739100;28;20207;-77
2023/05/13 00:09:44;;;;;;;0.00;0.00;;;;;;;;;;1739619;28;20204;-78
2023/05/13 00:10:35;;;;;;;0.00;0.00;;;;;;;;;;1739663;28;20211;-78
2023/05/13 00:11:27;;;;;;;0.00;0.00;;;;;;;;;;1739726;28;20522;-78
2023/05/13 00:12:20;;;;;;;0.00;0.00;;;;;;;;;;1740427;28;20580;-77
2023/05/13 00:13:12;;;;;;;0.00;0.00;;;;;;;;;;1739240;28;20203;-78
2023/05/13 00:14:03;;;;;;;0.00;0.00;;;;;;;;;;1741358;28;20523;-77
2023/05/13 00:14:55;;;;;;;0.00;0.00;;;;;;;;;;1739469;28;20238;-78
2023/05/13 00:15:46;;;;;;;0.00;0.00;;;;;;;;;;1738604;28;20577;-78
2023/05/13 00:16:38;;;;;;;0.00;0.00;;;;;;;;;;1739598;28;20314;-78
2023/05/13 00:17:29;;;;;;;0.00;0.00;;;;;;;;;;1739076;28;20347;-78
2023/05/13 00:18:21;;;;;;;0.00;0.00;;;;;;;;;;1740021;28;20199;-78
2023/05/13 00:19:12;;;;;;;0.00;0.00;;;;;;;;;;1741640;28;20218;-78
2023/05/13 00:20:08;;;;;;;0.00;0.00;;;;;;;;;;1740417;28;20298;-78
2023/05/13 00:20:59;;;;;;;0.00;0.00;;;;;;;;;;1739339;28;20601;-78
2023/05/13 00:21:51;;;;;;;0.00;0.00;;;;;;;;;;1739904;28;20305;-78
2023/05/13 00:22:42;;;;;;;0.00;0.00;;;;;;;;;;1738530;28;20706;-77
2023/05/13 00:23:34;;;;;;;0.00;0.00;;;;;;;;;;1739377;28;20745;-77
2023/05/13 00:24:26;;;;;;;0.00;0.00;;;;;;;;;;1739123;28;20211;-77
2023/05/13 00:25:18;;;;;;;0.00;0.00;;;;;;;;;;1739839;28;20200;-77
2023/05/13 00:26:09;;;;;;;0.00;0.00;;;;;;;;;;1740218;28;20533;-77
2023/05/13 00:27:01;;;;;;;0.00;0.00;;;;;;;;;;1739692;28;20207;-77
2023/05/13 00:27:54;;;;;;;0.00;0.00;;;;;;;;;;1740084;28;20264;-77
2023/05/13 00:28:46;;;;;;;0.00;0.00;;;;;;;;;;1739712;28;20235;-77
2023/05/13 00:29:37;;;;;;;0.00;0.00;;;;;;;;;;1739596;28;20203;-77
2023/05/13 00:30:29;;;;;;;0.00;0.00;;;;;;;;;;1739831;28;20204;-77
2023/05/13 00:31:20;;;;;;;0.00;0.00;;;;;;;;;;1739558;28;20279;-77
2023/05/13 00:32:12;;;;;;;0.00;0.00;;;;;;;;;;1739425;28;20199;-77
2023/05/13 00:33:03;;;;;;;0.00;0.00;;;;;;;;;;1739747;28;20203;-77
2023/05/13 00:33:54;;;;;;;0.00;0.00;;;;;;;;;;1739244;28;20193;-77
2023/05/13 00:34:46;;;;;;;0.00;0.00;;;;;;;;;;1739566;28;20366;-77
2023/05/13 00:35:37;;;;;;;0.00;0.00;;;;;;;;;;1739540;28;20204;-77
2023/05/13 00:36:29;;;;;;;0.00;0.00;;;;;;;;;;1739479;28;20252;-77
2023/05/13 00:37:20;;;;;;;0.00;0.00;;;;;;;;;;1738974;28;20208;-77
2023/05/13 00:38:12;;;;;;;0.00;0.00;;;;;;;;;;1739433;28;20203;-77
2023/05/13 00:39:03;;;;;;;0.00;0.00;;;;;;;;;;1739142;28;20578;-77
2023/05/13 00:39:55;;;;;;;0.00;0.00;;;;;;;;;;1739808;28;20555;-77
2023/05/13 00:40:46;;;;;;;0.00;0.00;;;;;;;;;;1738315;28;20273;-77
2023/05/13 00:41:38;;;;;;;0.00;0.00;;;;;;;;;;1739323;28;20265;-78
2023/05/13 00:42:29;;;;;;;0.00;0.00;;;;;;;;;;1738976;28;20200;-78
2023/05/13 00:43:23;;;;;;;0.00;0.00;;;;;;;;;;1739762;28;20685;-78
2023/05/13 00:44:14;;;;;;;0.00;0.00;;;;;;;;;;1738936;28;20211;-78
2023/05/13 00:45:06;;;;;;;0.00;0.00;;;;;;;;;;1739900;28;20479;-78
2023/05/13 00:45:58;;;;;;;0.00;0.00;;;;;;;;;;1738653;28;20259;-77
2023/05/13 00:46:50;;;;;;;0.00;0.00;;;;;;;;;;1739388;28;20203;-77
2023/05/13 00:47:41;;;;;;;0.00;0.00;;;;;;;;;;1738602;28;20242;-77
2023/05/13 00:48:33;;;;;;;0.00;0.00;;;;;;;;;;1738752;28;20199;-77
2023/05/13 00:49:25;;;;;;;0.00;0.00;;;;;;;;;;1739436;28;20204;-77
2023/05/13 00:50:17;;;;;;;0.00;0.00;;;;;;;;;;1737968;28;20203;-77
2023/05/13 00:51:08;;;;;;;0.00;0.00;;;;;;;;;;1737874;28;20352;-77
2023/05/13 00:52:00;;;;;;;0.00;0.00;;;;;;;;;;1734370;28;20625;-77
2023/05/13 00:52:51;;;;;;;0.00;0.00;;;;;;;;;;1739256;28;20253;-77
2023/05/13 00:53:43;;;;;;;0.00;0.00;;;;;;;;;;1737780;28;20203;-77
2023/05/13 00:54:34;;;;;;;0.00;0.00;;;;;;;;;;1738944;28;20283;-77
2023/05/13 00:55:26;;;;;;;0.00;0.00;;;;;;;;;;1739223;28;20203;-77
2023/05/13 00:56:18;;;;;;;0.00;0.00;;;;;;;;;;1739027;28;20203;-78
2023/05/13 00:57:10;;;;;;;0.00;0.00;;;;;;;;;;1738653;28;20556;-78
2023/05/13 00:58:01;;;;;;;0.05;0.05;;;;;;;;;;1743447;28;20210;-78
2023/05/13 00:58:54;;;;;;;0.00;0.00;;;;;;;;;;1740603;28;20199;-78
2023/05/13 00:59:46;;;;;;;0.00;0.00;;;;;;;;;;1744747;28;20203;-78
2023/05/13 01:00:39;;;;;;;0.00;0.00;;;;;;;;;;1740163;28;20650;-77
2023/05/13 01:01:39;;;;;;;0.00;0.00;;;;;;;;;;1737984;28;20203;-77
2023/05/13 01:02:33;;;;;;;0.00;0.00;;;;;;;;;;1738499;28;20494;-77
2023/05/13 01:03:29;;;;;;;0.00;0.00;;;;;;;;;;1739164;28;20286;-77
2023/05/13 01:04:25;;;;;;;0.00;0.00;;;;;;;;;;1738969;28;20233;-77
2023/05/13 01:05:21;;;;;;;0.00;0.00;;;;;;;;;;1738987;28;20659;-77
2023/05/13 01:06:15;;;;;;;0.00;0.00;;;;;;;;;;1739063;28;20540;-77
2023/05/13 01:07:10;;;;;;;0.00;0.00;;;;;;;;;;1738318;28;20641;-77
2023/05/13 01:08:03;;;;;;;0.00;0.00;;;;;;;;;;1738740;28;20292;-77
2023/05/13 01:08:58;;;;;;;0.00;0.00;;;;;;;;;;1738167;28;20207;-77
2023/05/13 01:09:54;;;;;;;0.00;0.00;;;;;;;;;;1738130;28;20280;-77
2023/05/13 01:10:48;;;;;;;0.00;0.00;;;;;;;;;;1743875;28;20200;-77
2023/05/13 01:11:40;;;;;;;0.00;0.00;;;;;;;;;;1738055;28;20208;-77
2023/05/13 01:12:32;;;;;;;0.00;0.00;;;;;;;;;;1738469;28;20200;-77
2023/05/13 01:13:26;;;;;;;0.00;0.00;;;;;;;;;;1738879;28;20265;-77
2023/05/13 01:14:22;;;;;;;0.00;0.00;;;;;;;;;;1738470;28;20290;-77
2023/05/13 01:15:15;;;;;;;0.00;0.00;;;;;;;;;;1738903;28;20334;-77
2023/05/13 01:16:10;;;;;;;0.00;0.00;;;;;;;;;;1738827;28;20298;-78
2023/05/13 01:17:03;;;;;;;0.00;0.00;;;;;;;;;;1739370;28;20199;-78
2023/05/13 01:17:56;;;;;;;0.00;0.00;;;;;;;;;;1739169;28;20214;-78
2023/05/13 01:18:53;;;;;;;0.00;0.00;;;;;;;;;;1734821;28;20242;-78
2023/05/13 01:19:45;;;;;;;0.00;0.00;;;;;;;;;;1738837;28;20294;-78
2023/05/13 01:20:38;;;;;;;0.00;0.00;;;;;;;;;;1742605;28;20215;-77
2023/05/13 01:21:34;;;;;;;0.00;0.00;;;;;;;;;;1741278;28;20204;-77
2023/05/13 01:22:26;;;;;;;0.00;0.00;;;;;;;;;;1738559;28;20199;-76
2023/05/13 01:23:17;;;;;;;0.00;0.00;;;;;;;;;;1738965;28;20226;-76
2023/05/13 01:24:09;;;;;;;0.00;0.00;;;;;;;;;;1737517;28;20303;-76
2023/05/13 01:25:01;;;;;;;0.00;0.00;;;;;;;;;;1739013;28;20295;-76
2023/05/13 01:25:53;;;;;;;0.00;0.00;;;;;;;;;;1744275;28;20210;-76
2023/05/13 01:26:44;;;;;;;0.00;0.00;;;;;;;;;;1739545;28;20653;-76
2023/05/13 01:27:36;;;;;;;0.00;0.00;;;;;;;;;;1738105;28;20213;-77
2023/05/13 01:28:28;;;;;;;0.00;0.00;;;;;;;;;;1738837;28;20265;-76
2023/05/13 01:29:20;;;;;;;0.00;0.00;;;;;;;;;;1738636;28;20972;-77
2023/05/13 01:30:11;;;;;;;0.00;0.00;;;;;;;;;;1738948;28;20296;-77
2023/05/13 01:31:03;;;;;;;0.00;0.00;;;;;;;;;;1738926;28;20261;-77
2023/05/13 01:31:55;;;;;;;0.00;0.00;;;;;;;;;;1739229;28;20202;-77
2023/05/13 01:32:47;;;;;;;0.00;0.00;;;;;;;;;;1739091;28;20214;-77
2023/05/13 01:33:39;;;;;;;0.00;0.00;;;;;;;;;;1738468;28;20307;-77
2023/05/13 01:34:31;;;;;;;0.00;0.00;;;;;;;;;;1738747;28;20209;-77
2023/05/13 01:35:23;;;;;;;0.00;0.00;;;;;;;;;;1739018;28;20187;-76
2023/05/13 01:36:14;;;;;;;0.00;0.00;;;;;;;;;;1738550;28;20263;-77
2023/05/13 01:37:07;;;;;;;0.00;0.00;;;;;;;;;;1738357;28;20298;-77
2023/05/13 01:38:00;;;;;;;0.00;0.00;;;;;;;;;;1738948;28;20206;-77
2023/05/13 01:38:51;;;;;;;0.00;0.00;;;;;;;;;;1735022;28;20206;-77
2023/05/13 01:39:43;;;;;;;0.00;0.00;;;;;;;;;;1739071;28;20210;-77
2023/05/13 01:40:34;;;;;;;0.00;0.00;;;;;;;;;;1738743;28;20199;-77
2023/05/13 01:41:27;;;;;;;0.00;0.00;;;;;;;;;;1738791;28;20233;-78
2023/05/13 01:42:18;;;;;;;0.00;0.00;;;;;;;;;;1738266;28;20290;-77
2023/05/13 01:43:10;;;;;;;0.00;0.00;;;;;;;;;;1738854;28;20268;-78
2023/05/13 01:44:01;;;;;;;0.00;0.00;;;;;;;;;;1738672;28;20206;-78
2023/05/13 01:44:53;;;;;;;0.00;0.00;;;;;;;;;;1738983;28;20620;-78
2023/05/13 01:45:44;;;;;;;0.00;0.00;;;;;;;;;;1742074;28;20206;-77
2023/05/13 01:46:36;;;;;;;0.00;0.00;;;;;;;;;;1740752;28;20195;-78
2023/05/13 01:47:28;;;;;;;0.00;0.00;;;;;;;;;;1738277;28;20205;-77
2023/05/13 01:48:19;;;;;;;0.00;0.00;;;;;;;;;;1738962;28;20210;-78
2023/05/13 01:49:11;;;;;;;0.00;0.00;;;;;;;;;;1742155;28;20303;-78
2023/05/13 01:50:02;;;;;;;0.00;0.00;;;;;;;;;;1739355;28;20207;-77
2023/05/13 01:50:55;;;;;;;0.00;0.00;;;;;;;;;;1738421;28;20206;-77
2023/05/13 01:51:46;;;;;;;0.00;0.00;;;;;;;;;;1739007;28;20206;-77
2023/05/13 01:52:39;;;;;;;0.00;0.00;;;;;;;;;;1738002;28;20210;-78
2023/05/13 01:53:30;;;;;;;0.00;0.00;;;;;;;;;;1738622;28;20211;-77
2023/05/13 01:54:22;;;;;;;0.00;0.00;;;;;;;;;;1737519;28;20285;-77
2023/05/13 01:55:14;;;;;;;0.00;0.00;;;;;;;;;;1738370;28;20325;-77
2023/05/13 01:56:09;;;;;;;0.00;0.00;;;;;;;;;;1738693;28;20268;-77
2023/05/13 01:57:00;;;;;;;0.00;0.00;;;;;;;;;;1738422;28;20210;-77
2023/05/13 01:57:52;;;;;;;0.00;0.00;;;;;;;;;;1740264;28;20203;-78
2023/05/13 01:58:43;;;;;;;0.00;0.00;;;;;;;;;;1741738;28;20676;-79
2023/05/13 01:59:36;;;;;;;0.00;0.00;;;;;;;;;;1742455;28;20222;-79
2023/05/13 02:00:27;;;;;;;0.00;0.00;;;;;;;;;;1740702;28;20217;-79
2023/05/13 02:01:19;;;;;;;0.00;0.00;;;;;;;;;;1740962;28;20205;-79
2023/05/13 02:02:10;;;;;;;0.00;0.00;;;;;;;;;;1740055;28;20202;-78
2023/05/13 02:03:02;;;;;;;0.00;0.00;;;;;;;;;;1740711;28;20212;-79
2023/05/13 02:03:53;;;;;;;0.00;0.00;;;;;;;;;;1742557;28;20208;-78
2023/05/13 02:04:45;;;;;;;0.00;0.00;;;;;;;;;;1746338;28;20669;-79
2023/05/13 02:05:36;;;;;;;0.00;0.00;;;;;;;;;;1746143;28;20283;-79
2023/05/13 02:06:28;;;;;;;0.00;0.00;;;;;;;;;;1744076;28;20211;-79
2023/05/13 02:07:19;;;;;;;0.00;0.00;;;;;;;;;;1741349;28;20670;-79
2023/05/13 02:08:12;;;;;;;0.00;0.00;;;;;;;;;;1740495;28;20199;-79
2023/05/13 02:09:03;;;;;;;0.00;0.00;;;;;;;;;;1740242;28;20201;-79
2023/05/13 02:09:58;;;;;;;0.00;0.00;;;;;;;;;;1741279;28;20230;-79
2023/05/13 02:10:54;;;;;;;0.00;0.00;;;;;;;;;;1740371;28;20233;-78
2023/05/13 02:11:46;;;;;;;0.00;0.00;;;;;;;;;;1740057;28;20201;-79
2023/05/13 02:12:37;;;;;;;0.00;0.00;;;;;;;;;;1741044;28;20264;-78
2023/05/13 02:13:29;;;;;;;0.00;0.00;;;;;;;;;;1735619;28;20763;-78
2023/05/13 02:14:20;;;;;;;0.00;0.00;;;;;;;;;;1733115;28;20222;-78
2023/05/13 02:15:13;;;;;;;0.00;0.00;;;;;;;;;;1732978;28;20346;-79
2023/05/13 02:16:04;;;;;;;0.00;0.00;;;;;;;;;;1731260;28;20600;-78
2023/05/13 02:16:56;;;;;;;0.00;0.00;;;;;;;;;;1731787;28;20207;-78
2023/05/13 02:17:47;;;;;;;0.00;0.00;;;;;;;;;;1731946;28;20646;-78
2023/05/13 02:18:38;;;;;;;0.00;0.00;;;;;;;;;;1731715;28;20202;-78
2023/05/13 02:19:30;;;;;;;0.00;0.00;;;;;;;;;;1731616;28;20286;-78
2023/05/13 02:20:21;;;;;;;0.00;0.00;;;;;;;;;;1731638;28;20238;-78
2023/05/13 02:21:13;;;;;;;0.00;0.00;;;;;;;;;;1731450;28;20231;-78
2023/05/13 02:22:04;;;;;;;0.00;0.00;;;;;;;;;;1730974;28;20230;-78
2023/05/13 02:22:56;;;;;;;0.00;0.00;;;;;;;;;;1732087;28;20581;-78
2023/05/13 02:23:49;;;;;;;0.00;0.00;;;;;;;;;;1730290;28;20301;-78
2023/05/13 02:24:41;;;;;;;0.00;0.00;;;;;;;;;;1731865;28;20208;-78
2023/05/13 02:25:32;;;;;;;0.00;0.00;;;;;;;;;;1731807;28;20539;-78
2023/05/13 02:26:24;;;;;;;0.00;0.00;;;;;;;;;;1731542;28;20233;-78
2023/05/13 02:27:15;;;;;;;0.00;0.00;;;;;;;;;;1732656;28;20506;-78
2023/05/13 02:28:08;;;;;;;0.00;0.00;;;;;;;;;;1731361;28;20199;-78
2023/05/13 02:28:59;;;;;;;0.00;0.00;;;;;;;;;;1731677;28;20214;-78
2023/05/13 02:29:50;;;;;;;0.00;0.00;;;;;;;;;;1732044;28;20212;-78
2023/05/13 02:30:41;;;;;;;0.00;0.00;;;;;;;;;;1731546;28;20215;-77
2023/05/13 02:31:35;;;;;;;0.00;0.00;;;;;;;;;;1731586;28;20206;-76
2023/05/13 02:32:26;;;;;;;0.00;0.00;;;;;;;;;;1730937;28;20206;-76
2023/05/13 02:33:18;;;;;;;0.00;0.00;;;;;;;;;;1731558;28;20320;-77
2023/05/13 02:34:09;;;;;;;0.00;0.00;;;;;;;;;;1731383;28;20209;-78
2023/05/13 02:35:02;;;;;;;0.00;0.00;;;;;;;;;;1732583;28;20233;-78
2023/05/13 02:35:53;;;;;;;0.00;0.00;;;;;;;;;;1736598;28;20235;-78
2023/05/13 02:36:47;;;;;;;0.00;0.00;;;;;;;;;;1732670;28;20195;-78
2023/05/13 02:37:38;;;;;;;0.00;0.00;;;;;;;;;;1731623;28;20538;-78
2023/05/13 02:38:30;;;;;;;0.00;0.00;;;;;;;;;;1732058;28;20211;-78
2023/05/13 02:39:23;;;;;;;0.00;0.00;;;;;;;;;;1732170;28;20243;-79
2023/05/13 02:40:15;;;;;;;0.00;0.00;;;;;;;;;;1732681;28;20205;-79
2023/05/13 02:41:06;;;;;;;0.00;0.00;;;;;;;;;;1731498;28;20206;-79
2023/05/13 02:41:58;;;;;;;0.00;0.00;;;;;;;;;;1726535;28;20203;-79
2023/05/13 02:42:49;;;;;;;0.00;0.00;;;;;;;;;;1732343;28;20215;-79
2023/05/13 02:43:41;;;;;;;0.00;0.00;;;;;;;;;;1732213;28;20207;-79
2023/05/13 02:44:32;;;;;;;0.00;0.00;;;;;;;;;;1729691;28;20216;-78
2023/05/13 02:45:24;;;;;;;0.00;0.00;;;;;;;;;;1732599;28;20209;-78
2023/05/13 02:46:15;;;;;;;0.00;0.00;;;;;;;;;;1732407;28;20656;-78
2023/05/13 02:47:07;;;;;;;0.00;0.00;;;;;;;;;;1731723;28;20516;-79
2023/05/13 02:47:58;;;;;;;0.00;0.00;;;;;;;;;;1732590;28;20218;-79
2023/05/13 02:48:50;;;;;;;0.00;0.00;;;;;;;;;;1731734;28;20220;-79
2023/05/13 02:49:41;;;;;;;0.00;0.00;;;;;;;;;;1732598;28;20209;-79
2023/05/13 02:50:33;;;;;;;0.00;0.00;;;;;;;;;;1732890;28;20206;-78
2023/05/13 02:51:24;;;;;;;0.00;0.00;;;;;;;;;;1732506;28;20343;-78
2023/05/13 02:52:16;;;;;;;0.00;0.00;;;;;;;;;;1732238;28;20215;-78
2023/05/13 02:53:07;;;;;;;0.00;0.00;;;;;;;;;;1731676;28;20220;-79
2023/05/13 02:53:59;;;;;;;0.00;0.00;;;;;;;;;;1729467;28;20259;-78
2023/05/13 02:54:52;;;;;;;0.00;0.00;;;;;;;;;;1737883;28;20222;-78
2023/05/13 02:55:44;;;;;;;0.00;0.00;;;;;;;;;;1733641;28;20267;-78
2023/05/13 02:56:35;;;;;;;0.00;0.00;;;;;;;;;;1735099;28;20271;-78
2023/05/13 02:57:27;;;;;;;0.00;0.00;;;;;;;;;;1731734;28;20207;-77
2023/05/13 02:58:18;;;;;;;0.00;0.00;;;;;;;;;;1731801;28;20210;-77
2023/05/13 02:59:10;;;;;;;0.00;0.00;;;;;;;;;;1730997;28;20209;-77
2023/05/13 03:00:05;;;;;;;0.00;0.00;;;;;;;;;;1732036;28;20341;-77
2023/05/13 03:00:57;;;;;;;0.00;0.00;;;;;;;;;;1733054;28;20201;-76
2023/05/13 03:01:48;;;;;;;0.00;0.00;;;;;;;;;;1731186;28;20214;-77
2023/05/13 03:02:39;;;;;;;0.00;0.00;;;;;;;;;;1730970;28;20221;-77
2023/05/13 03:03:31;;;;;;;0.00;0.00;;;;;;;;;;1731361;28;20269;-78
2023/05/13 03:04:23;;;;;;;0.00;0.00;;;;;;;;;;1731371;28;20235;-78
2023/05/13 03:05:14;;;;;;;0.00;0.00;;;;;;;;;;1731654;28;20203;-77
2023/05/13 03:06:06;;;;;;;0.00;0.00;;;;;;;;;;1731379;28;20639;-76
2023/05/13 03:06:58;;;;;;;0.00;0.00;;;;;;;;;;1731594;28;20574;-77
2023/05/13 03:07:49;;;;;;;0.00;0.00;;;;;;;;;;1734445;28;20263;-77
2023/05/13 03:08:41;;;;;;;0.00;0.00;;;;;;;;;;1732324;28;20202;-77
2023/05/13 03:09:33;;;;;;;0.00;0.00;;;;;;;;;;1728872;28;20205;-77
2023/05/13 03:10:27;;;;;;;0.00;0.00;;;;;;;;;;1731624;28;20571;-78
2023/05/13 03:11:18;;;;;;;0.00;0.00;;;;;;;;;;1731706;28;20291;-78
2023/05/13 03:12:10;;;;;;;0.00;0.00;;;;;;;;;;1731244;28;20214;-77
2023/05/13 03:13:01;;;;;;;0.00;0.00;;;;;;;;;;1731874;28;20209;-77
2023/05/13 03:13:53;;;;;;;0.00;0.00;;;;;;;;;;1731153;28;20276;-77
2023/05/13 03:14:44;;;;;;;0.00;0.00;;;;;;;;;;1731852;28;20202;-77
2023/05/13 03:15:36;;;;;;;0.00;0.00;;;;;;;;;;1731962;28;20222;-78
2023/05/13 03:16:27;;;;;;;0.00;0.00;;;;;;;;;;1731587;28;20206;-77
2023/05/13 03:17:19;;;;;;;0.00;0.00;;;;;;;;;;1731449;28;20213;-77
2023/05/13 03:18:10;;;;;;;0.00;0.00;;;;;;;;;;1731748;28;20636;-77
2023/05/13 03:19:02;;;;;;;0.00;0.00;;;;;;;;;;1732062;28;20210;-78
2023/05/13 03:19:53;;;;;;;0.00;0.00;;;;;;;;;;1732518;28;20262;-78
2023/05/13 03:20:45;;;;;;;0.00;0.00;;;;;;;;;;1732471;28;20202;-78
2023/05/13 03:21:36;;;;;;;0.00;0.00;;;;;;;;;;1732739;28;20210;-78
2023/05/13 03:22:28;;;;;;;0.00;0.00;;;;;;;;;;1732301;28;20273;-78
2023/05/13 03:23:19;;;;;;;0.00;0.00;;;;;;;;;;1733339;28;20249;-78
2023/05/13 03:24:11;;;;;;;0.00;0.00;;;;;;;;;;1733478;28;20209;-78
2023/05/13 03:25:05;;;;;;;0.10;0.10;;;;;;;;;;1735688;28;20213;-78
2023/05/13 03:26:00;;;;;;;0.00;0.00;;;;;;;;;;1738441;28;20414;-78
2023/05/13 03:26:51;;;;;;;0.00;0.00;;;;;;;;;;1727704;28;20222;-78
2023/05/13 03:27:43;;;;;;;0.00;0.00;;;;;;;;;;1732259;28;20201;-78
2023/05/13 03:28:35;;;;;;;0.00;0.00;;;;;;;;;;1731408;28;20548;-76
2023/05/13 03:29:27;;;;;;;0.00;0.00;;;;;;;;;;1731812;28;20213;-76
2023/05/13 03:30:18;;;;;;;0.00;0.00;;;;;;;;;;1731672;28;20283;-76
2023/05/13 03:31:10;;;;;;;0.00;0.00;;;;;;;;;;1731484;28;20205;-76
2023/05/13 03:32:01;;;;;;;0.00;0.00;;;;;;;;;;1732282;28;20280;-76
2023/05/13 03:32:52;;;;;;;0.00;0.00;;;;;;;;;;1729374;28;20215;-76
2023/05/13 03:33:44;;;;;;;0.10;0.10;;;;;;;;;;1732386;28;20226;-76
2023/05/13 03:34:36;;;;;;;0.00;0.00;;;;;;;;;;1732750;28;20210;-76
2023/05/13 03:35:28;;;;;;;0.00;0.00;;;;;;;;;;1732796;28;20563;-76
2023/05/13 03:36:20;;;;;;;0.00;0.00;;;;;;;;;;1732770;28;20215;-77
2023/05/13 03:37:11;;;;;;;0.00;0.00;;;;;;;;;;1731994;28;20274;-76
2023/05/13 03:38:03;;;;;;;0.00;0.00;;;;;;;;;;1732956;28;20213;-77
2023/05/13 03:38:54;;;;;;;0.00;0.00;;;;;;;;;;1735356;28;20260;-78
2023/05/13 03:39:46;;;;;;;0.00;0.00;;;;;;;;;;1735874;28;20205;-78
2023/05/13 03:40:37;;;;;;;0.00;0.00;;;;;;;;;;1734255;28;20478;-78
2023/05/13 03:41:30;;;;;;;0.00;0.00;;;;;;;;;;1736077;28;20221;-78
2023/05/13 03:42:22;;;;;;;0.00;0.00;;;;;;;;;;1733472;28;20237;-77
2023/05/13 03:43:14;;;;;;;0.00;0.00;;;;;;;;;;1738916;28;20223;-78
2023/05/13 03:44:05;;;;;;;0.00;0.00;;;;;;;;;;1733451;28;20630;-78
2023/05/13 03:44:56;;;;;;;0.00;0.00;;;;;;;;;;1733608;28;20217;-78
2023/05/13 03:45:49;;;;;;;0.00;0.00;;;;;;;;;;1737391;28;20335;-78
2023/05/13 03:46:40;;;;;;;0.00;0.00;;;;;;;;;;1735094;28;20698;-76
2023/05/13 03:47:32;;;;;;;0.00;0.00;;;;;;;;;;1732988;28;20237;-78
2023/05/13 03:48:23;;;;;;;0.00;0.00;;;;;;;;;;1734675;28;20210;-78
2023/05/13 03:49:16;;;;;;;0.00;0.00;;;;;;;;;;1732089;28;20205;-78
2023/05/13 03:50:08;;;;;;;0.00;0.00;;;;;;;;;;1733735;28;20212;-78
2023/05/13 03:51:00;;;;;;;0.00;0.00;;;;;;;;;;1733212;28;20201;-78
2023/05/13 03:51:51;;;;;;;0.00;0.00;;;;;;;;;;1732456;28;20210;-78
2023/05/13 03:52:43;;;;;;;0.00;0.00;;;;;;;;;;1733493;28;20202;-78
2023/05/13 03:53:34;;;;;;;0.00;0.00;;;;;;;;;;1732737;28;20524;-78
2023/05/13 03:54:26;;;;;;;0.00;0.00;;;;;;;;;;1733313;28;20292;-78
2023/05/13 03:55:17;;;;;;;0.00;0.00;;;;;;;;;;1733223;28;20243;-78
2023/05/13 03:56:09;;;;;;;0.00;0.00;;;;;;;;;;1733213;28;20228;-78
2023/05/13 03:57:01;;;;;;;0.00;0.00;;;;;;;;;;1732768;28;20217;-78
2023/05/13 03:57:52;;;;;;;0.00;0.00;;;;;;;;;;1733149;28;20277;-78
2023/05/13 03:58:44;;;;;;;0.00;0.00;;;;;;;;;;1732517;28;20212;-78
2023/05/13 03:59:36;;;;;;;0.00;0.00;;;;;;;;;;1733005;28;20212;-78
2023/05/13 04:00:28;;;;;;;0.00;0.00;;;;;;;;;;1733753;28;20535;-78
2023/05/13 04:01:19;;;;;;;0.00;0.00;;;;;;;;;;1735880;28;20391;-78
2023/05/13 04:02:11;;;;;;;0.00;0.00;;;;;;;;;;1732896;28;20206;-78
2023/05/13 04:03:02;;;;;;;0.00;0.00;;;;;;;;;;1733365;28;20467;-78
2023/05/13 04:03:54;;;;;;;0.00;0.00;;;;;;;;;;1732424;28;20524;-78
2023/05/13 04:04:45;;;;;;;0.00;0.00;;;;;;;;;;1738061;28;20208;-78
2023/05/13 04:05:36;;;;;;;0.00;0.00;;;;;;;;;;1737099;28;20278;-78
2023/05/13 04:06:28;;;;;;;0.00;0.00;;;;;;;;;;1737136;28;20239;-78
2023/05/13 04:07:19;;;;;;;0.00;0.00;;;;;;;;;;1732482;28;20276;-78
2023/05/13 04:08:11;;;;;;;0.00;0.00;;;;;;;;;;1732802;28;20216;-78
2023/05/13 04:09:03;;;;;;;0.00;0.00;;;;;;;;;;1735856;28;20664;-78
2023/05/13 04:09:55;;;;;;;0.00;0.00;;;;;;;;;;1739649;28;20214;-78
2023/05/13 04:10:46;;;;;;;0.00;0.00;;;;;;;;;;1737236;28;20602;-78
2023/05/13 04:11:38;;;;;;;0.00;0.00;;;;;;;;;;1735298;28;20217;-78
2023/05/13 04:12:32;;;;;;;0.00;0.00;;;;;;;;;;1732289;28;20264;-78
2023/05/13 04:13:24;;;;;;;0.00;0.00;;;;;;;;;;1732790;28;20235;-78
2023/05/13 04:14:15;;;;;;;0.00;0.00;;;;;;;;;;1732081;28;20606;-78
2023/05/13 04:15:07;;;;;;;0.00;0.00;;;;;;;;;;1733278;28;20441;-78
2023/05/13 04:15:58;;;;;;;0.00;0.00;;;;;;;;;;1732738;28;20251;-78
2023/05/13 04:16:50;;;;;;;0.00;0.00;;;;;;;;;;1733010;28;20303;-78
2023/05/13 04:17:41;;;;;;;0.00;0.00;;;;;;;;;;1733347;28;20637;-78
2023/05/13 04:18:34;;;;;;;0.00;0.00;;;;;;;;;;1732186;28;20669;-78
2023/05/13 04:19:25;;;;;;;0.00;0.00;;;;;;;;;;1732611;28;21031;-78
2023/05/13 04:20:17;;;;;;;0.00;0.00;;;;;;;;;;1732285;28;20201;-78
2023/05/13 04:21:09;;;;;;;0.00;0.00;;;;;;;;;;1739210;28;20586;-78
2023/05/13 04:22:01;;;;;;;0.00;0.00;;;;;;;;;;1731918;28;20211;-78
2023/05/13 04:22:52;;;;;;;0.00;0.00;;;;;;;;;;1733628;28;20209;-78
2023/05/13 04:23:44;;;;;;;0.00;0.00;;;;;;;;;;1731136;28;20294;-78
2023/05/13 04:24:35;;;;;;;0.00;0.00;;;;;;;;;;1732645;28;20200;-78
2023/05/13 04:25:27;;;;;;;0.00;0.00;;;;;;;;;;1732830;28;20296;-78
2023/05/13 04:26:19;;;;;;;0.00;0.00;;;;;;;;;;1732695;28;20269;-78
2023/05/13 04:27:11;;;;;;;0.00;0.00;;;;;;;;;;1732358;28;20265;-78
2023/05/13 04:28:03;;;;;;;0.00;0.00;;;;;;;;;;1732997;28;20268;-78
2023/05/13 04:28:55;;;;;;;0.00;0.00;;;;;;;;;;1731934;28;20678;-78
2023/05/13 04:29:46;;;;;;;0.00;0.00;;;;;;;;;;1732727;28;20241;-78
2023/05/13 04:30:38;;;;;;;0.00;0.00;;;;;;;;;;1732796;28;20506;-78
2023/05/13 04:31:29;;;;;;;0.00;0.00;;;;;;;;;;1734029;28;20207;-79
2023/05/13 04:32:21;;;;;;;0.00;0.00;;;;;;;;;;1733488;28;20284;-78
2023/05/13 04:33:12;;;;;;;0.00;0.00;;;;;;;;;;1733921;28;20328;-78
2023/05/13 04:34:04;;;;;;;0.00;0.00;;;;;;;;;;1733783;28;20214;-79
2023/05/13 04:34:55;;;;;;;0.00;0.00;;;;;;;;;;1733433;28;20369;-78
2023/05/13 04:35:47;;;;;;;0.00;0.00;;;;;;;;;;1737337;28;20275;-78
2023/05/13 04:36:38;;;;;;;0.00;0.00;;;;;;;;;;1735912;28;20221;-79
2023/05/13 04:37:30;;;;;;;0.00;0.00;;;;;;;;;;1733607;28;20207;-79
2023/05/13 04:38:21;;;;;;;0.00;0.00;;;;;;;;;;1738455;28;20648;-78
2023/05/13 04:39:13;;;;;;;0.00;0.00;;;;;;;;;;1732633;28;20201;-78
2023/05/13 04:40:05;;;;;;;0.00;0.00;;;;;;;;;;1734377;28;20579;-78
2023/05/13 04:40:57;;;;;;;0.00;0.00;;;;;;;;;;1732061;28;20205;-78
2023/05/13 04:41:48;;;;;;;0.00;0.00;;;;;;;;;;1732891;28;20358;-78
2023/05/13 04:42:40;;;;;;;0.00;0.00;;;;;;;;;;1732214;28;20233;-78
2023/05/13 04:43:33;;;;;;;0.00;0.00;;;;;;;;;;1731549;28;20253;-78
2023/05/13 04:44:25;;;;;;;0.00;0.00;;;;;;;;;;1732716;28;20202;-78
2023/05/13 04:45:16;;;;;;;0.00;0.00;;;;;;;;;;1732562;28;20670;-78
2023/05/13 04:46:08;;;;;;;0.00;0.00;;;;;;;;;;1732638;28;20213;-78
2023/05/13 04:46:59;;;;;;;0.00;0.00;;;;;;;;;;1727565;28;20637;-77
2023/05/13 04:47:51;;;;;;;0.00;0.00;;;;;;;;;;1729447;28;20216;-77
2023/05/13 04:48:44;;;;;;;0.00;0.00;;;;;;;;;;1732242;28;20201;-77
2023/05/13 04:49:36;;;;;;;0.00;0.00;;;;;;;;;;1731621;28;20611;-77
2023/05/13 04:50:27;;;;;;;0.00;0.00;;;;;;;;;;1728196;28;20212;-77
2023/05/13 04:51:19;;;;;;;0.00;0.00;;;;;;;;;;1731964;28;20625;-77
2023/05/13 04:52:11;;;;;;;0.00;0.00;;;;;;;;;;1731874;28;20217;-77
2023/05/13 04:53:03;;;;;;;0.00;0.00;;;;;;;;;;1732463;28;20525;-76
2023/05/13 04:53:54;;;;;;;0.00;0.00;;;;;;;;;;1730823;28;20210;-76
2023/05/13 04:54:46;;;;;;;0.00;0.00;;;;;;;;;;1732430;28;20260;-76
2023/05/13 04:55:37;;;;;;;0.00;0.00;;;;;;;;;;1733902;28;20768;-76
2023/05/13 04:56:29;;;;;;;0.00;0.00;;;;;;;;;;1736175;28;20333;-76
2023/05/13 04:57:20;;;;;;;0.00;0.00;;;;;;;;;;1731519;28;20241;-76
2023/05/13 04:58:11;;;;;;;0.00;0.00;;;;;;;;;;1732227;28;20231;-76
2023/05/13 04:59:05;;;;;;;0.00;0.00;;;;;;;;;;1732242;28;20662;-76
2023/05/13 04:59:56;;;;;;;0.00;0.00;;;;;;;;;;1732115;28;20222;-76
2023/05/13 05:00:48;;;;;;;0.00;0.00;;;;;;;;;;1731316;28;20241;-76
2023/05/13 05:01:39;;;;;;;0.00;0.00;;;;;;;;;;1729618;28;20564;-76
2023/05/13 05:02:31;;;;;;;0.00;0.00;;;;;;;;;;1733051;28;20199;-76
2023/05/13 05:03:22;;;;;;;0.00;0.00;;;;;;;;;;1732395;28;20206;-76
2023/05/13 05:04:14;;;;;;;0.00;0.00;;;;;;;;;;1731622;28;20277;-76
2023/05/13 05:05:05;;;;;;;0.00;0.00;;;;;;;;;;1732889;28;20202;-76
2023/05/13 05:05:57;;;;;;;0.00;0.00;;;;;;;;;;1731551;28;20206;-76
2023/05/13 05:06:48;;;;;;;0.00;0.00;;;;;;;;;;1732425;28;20632;-77
2023/05/13 05:07:41;;;;;;;0.00;0.00;;;;;;;;;;1731768;28;20211;-77
2023/05/13 05:08:32;;;;;;;0.00;0.00;;;;;;;;;;1731629;28;20208;-77
2023/05/13 05:09:24;;;;;;;0.00;0.00;;;;;;;;;;1732185;28;20219;-77
2023/05/13 05:10:15;;;;;;;0.00;0.00;;;;;;;;;;1731835;28;20216;-77
2023/05/13 05:11:07;;;;;;;0.00;0.00;;;;;;;;;;1736058;28;20297;-77